createdAt,value
2023-03-08T00:01:02.076Z,7.72
2023-03-08T00:03:28.548Z,8.25
2023-03-08T00:05:54.993Z,8.20
2023-03-08T00:08:21.528Z,8.25
2023-03-08T00:10:47.950Z,8.38
2023-03-08T00:13:14.318Z,8.20
2023-03-08T00:15:40.751Z,8.50
2023-03-08T00:18:07.152Z,8.40
2023-03-08T00:20:33.969Z,7.95
2023-03-08T00:23:00.355Z,8.30
2023-03-08T00:25:26.743Z,8.30
2023-03-08T00:27:53.402Z,8.25
2023-03-08T00:30:19.794Z,8.80
2023-03-08T00:32:46.293Z,9.48
2023-03-08T00:35:12.675Z,8.80
2023-03-08T00:37:39.068Z,8.98
2023-03-08T00:40:05.995Z,9.27
2023-03-08T00:42:32.447Z,9.52
2023-03-08T00:44:58.812Z,10.02
2023-03-08T00:47:25.210Z,9.02
2023-03-08T00:49:51.596Z,9.60
2023-03-08T00:52:18.141Z,9.00
2023-03-08T00:54:44.563Z,9.75
2023-03-08T00:57:11.127Z,9.38
2023-03-08T00:59:37.577Z,9.40
2023-03-08T01:02:03.959Z,9.75
2023-03-08T01:04:33.157Z,10.00
2023-03-08T01:07:00.586Z,10.20
2023-03-08T01:09:26.976Z,10.32
2023-03-08T01:11:53.498Z,10.13
2023-03-08T01:14:19.887Z,10.65
2023-03-08T01:16:46.273Z,10.65
2023-03-08T01:19:12.656Z,11.25
2023-03-08T01:21:39.082Z,10.35
2023-03-08T01:24:05.980Z,10.52
2023-03-08T01:26:32.610Z,10.45
2023-03-08T01:28:59.036Z,11.60
2023-03-08T01:31:28.188Z,11.30
2023-03-08T01:33:55.260Z,10.75
2023-03-08T01:36:24.709Z,10.20
2023-03-08T01:38:51.431Z,9.93
2023-03-08T01:41:24.045Z,9.52
2023-03-08T01:43:50.740Z,9.32
2023-03-08T01:46:26.447Z,10.30
2023-03-08T01:48:56.245Z,9.80
2023-03-08T01:51:28.792Z,8.88
2023-03-08T01:53:55.791Z,8.32
2023-03-08T01:56:22.740Z,8.30
2023-03-08T01:58:50.674Z,8.38
2023-03-08T02:01:19.242Z,8.38
2023-03-08T02:03:45.830Z,8.45
2023-03-08T02:06:12.722Z,7.97
2023-03-08T02:08:39.152Z,7.95
2023-03-08T02:11:05.640Z,7.78
2023-03-08T02:13:32.391Z,7.25
2023-03-08T02:15:59.010Z,7.95
2023-03-08T02:18:25.424Z,8.05
2023-03-08T02:20:51.834Z,7.97
2023-03-08T02:23:23.866Z,7.03
2023-03-08T02:25:55.568Z,7.18
2023-03-08T02:28:23.339Z,7.50
2023-03-08T02:30:50.255Z,7.13
2023-03-08T02:33:17.647Z,6.78
2023-03-08T02:35:44.928Z,7.25
2023-03-08T02:38:13.007Z,6.95
2023-03-08T02:40:39.966Z,7.25
2023-03-08T02:43:06.976Z,6.68
2023-03-08T02:45:34.066Z,6.30
2023-03-08T02:48:01.638Z,7.30
2023-03-08T02:50:28.259Z,7.00
2023-03-08T02:52:54.792Z,7.43
2023-03-08T02:55:21.383Z,7.70
2023-03-08T02:57:47.788Z,6.88
2023-03-08T03:00:14.766Z,7.43
2023-03-08T03:02:41.174Z,7.32
2023-03-08T03:05:10.941Z,7.43
2023-03-08T03:07:39.323Z,8.13
2023-03-08T03:10:06.642Z,7.38
2023-03-08T03:12:33.040Z,7.82
2023-03-08T03:15:02.020Z,7.68
2023-03-08T03:17:28.637Z,8.20
2023-03-08T03:19:55.000Z,8.45
2023-03-08T03:22:21.406Z,8.05
2023-03-08T03:24:50.094Z,8.88
2023-03-08T03:27:16.984Z,8.77
2023-03-08T03:29:43.344Z,8.90
2023-03-08T03:32:09.815Z,9.13
2023-03-08T03:34:36.271Z,9.07
2023-03-08T03:37:03.042Z,8.27
2023-03-08T03:39:34.020Z,8.85
2023-03-08T03:42:00.824Z,8.95
2023-03-08T03:44:30.628Z,9.52
2023-03-08T03:46:57.385Z,9.35
2023-03-08T03:49:23.822Z,10.20
2023-03-08T03:51:50.245Z,10.75
2023-03-08T03:54:16.671Z,9.88
2023-03-08T03:56:43.117Z,9.88
2023-03-08T03:59:09.513Z,10.55
2023-03-08T04:01:35.893Z,10.55
2023-03-08T04:04:02.307Z,10.18
2023-03-08T04:06:30.053Z,11.30
2023-03-08T04:09:02.063Z,11.48
2023-03-08T04:11:33.056Z,10.85
2023-03-08T04:13:59.514Z,11.52
2023-03-08T04:16:29.481Z,10.80
2023-03-08T04:18:58.361Z,11.68
2023-03-08T04:21:25.219Z,12.00
2023-03-08T04:23:51.729Z,11.40
2023-03-08T04:26:18.377Z,11.68
2023-03-08T04:28:44.759Z,10.98
2023-03-08T04:31:13.127Z,11.77
2023-03-08T04:33:39.810Z,11.32
2023-03-08T04:36:06.384Z,10.85
2023-03-08T04:38:36.204Z,12.10
2023-03-08T04:41:10.253Z,12.18
2023-03-08T04:43:36.787Z,12.20
2023-03-08T04:46:03.464Z,12.35
2023-03-08T04:48:30.164Z,12.35
2023-03-08T04:50:58.589Z,13.18
2023-03-08T04:53:25.815Z,12.77
2023-03-08T04:55:52.746Z,12.60
2023-03-08T04:58:19.443Z,13.27
2023-03-08T05:00:45.821Z,13.23
2023-03-08T05:03:13.401Z,13.07
2023-03-08T05:05:51.402Z,12.80
2023-03-08T05:08:18.520Z,13.73
2023-03-08T05:11:00.771Z,13.57
2023-03-08T05:13:29.402Z,14.10
2023-03-08T05:15:56.063Z,14.50
2023-03-08T05:18:22.599Z,14.68
2023-03-08T05:21:03.212Z,17.77
2023-03-08T05:23:30.130Z,18.25
2023-03-08T05:25:58.429Z,18.30
2023-03-08T05:28:26.420Z,19.27
2023-03-08T05:31:10.736Z,18.70
2023-03-08T05:33:37.435Z,17.55
2023-03-08T05:36:05.027Z,18.13
2023-03-08T05:38:31.690Z,18.67
2023-03-08T05:41:02.499Z,19.10
2023-03-08T05:43:29.209Z,18.02
2023-03-08T05:46:00.947Z,20.15
2023-03-08T05:48:27.463Z,19.35
2023-03-08T05:50:55.304Z,20.25
2023-03-08T05:53:22.669Z,21.42
2023-03-08T05:55:49.269Z,22.05
2023-03-08T05:58:16.087Z,22.27
2023-03-08T06:00:42.534Z,22.92
2023-03-08T06:03:08.985Z,23.95
2023-03-08T06:05:35.426Z,22.67
2023-03-08T06:08:01.928Z,24.55
2023-03-08T06:10:28.290Z,24.83
2023-03-08T06:12:54.715Z,25.08
2023-03-08T06:15:21.245Z,25.63
2023-03-08T06:17:47.699Z,24.25
2023-03-08T06:20:16.408Z,25.20
2023-03-08T06:22:43.328Z,26.65
2023-03-08T06:25:10.008Z,27.80
2023-03-08T06:27:36.385Z,25.80
2023-03-08T06:30:02.878Z,25.85
2023-03-08T06:32:29.389Z,26.83
2023-03-08T06:34:55.778Z,27.50
2023-03-08T06:37:22.177Z,26.35
2023-03-08T06:39:48.546Z,26.05
2023-03-08T06:42:14.921Z,27.17
2023-03-08T06:44:41.344Z,26.52
2023-03-08T06:47:07.766Z,28.70
2023-03-08T06:49:34.165Z,28.88
2023-03-08T06:52:00.559Z,27.85
2023-03-08T06:54:26.940Z,28.90
2023-03-08T06:56:53.294Z,27.55
2023-03-08T06:59:19.943Z,27.95
2023-03-08T07:01:46.298Z,28.98
2023-03-08T07:04:12.788Z,28.80
2023-03-08T07:06:39.183Z,28.67
2023-03-08T07:09:05.530Z,29.13
2023-03-08T07:11:33.596Z,28.60
2023-03-08T07:14:00.024Z,29.60
2023-03-08T07:16:26.777Z,30.55
2023-03-08T07:18:53.289Z,29.67
2023-03-08T07:21:19.682Z,31.15
2023-03-08T07:23:46.096Z,31.42
2023-03-08T07:26:12.545Z,32.17
2023-03-08T07:28:39.115Z,32.47
2023-03-08T07:31:05.743Z,32.55
2023-03-08T07:33:32.405Z,32.47
2023-03-08T07:36:01.527Z,32.60
2023-03-08T07:38:28.007Z,33.55
2023-03-08T07:40:56.033Z,33.05
2023-03-08T07:43:23.109Z,33.22
2023-03-08T07:45:49.519Z,34.58
2023-03-08T07:48:15.892Z,33.28
2023-03-08T07:50:42.316Z,31.48
2023-03-08T07:53:08.751Z,32.20
2023-03-08T07:55:36.888Z,32.38
2023-03-08T07:58:03.289Z,33.67
2023-03-08T08:00:29.707Z,31.30
2023-03-08T08:02:57.355Z,31.73
2023-03-08T08:05:24.461Z,32.00
2023-03-08T08:07:50.950Z,32.53
2023-03-08T08:10:17.513Z,31.45
2023-03-08T08:12:43.933Z,32.17
2023-03-08T08:15:10.931Z,31.63
2023-03-08T08:17:37.363Z,30.67
2023-03-08T08:20:06.011Z,32.08
2023-03-08T08:22:35.206Z,31.63
2023-03-08T08:25:01.958Z,31.48
2023-03-08T08:27:28.364Z,31.20
2023-03-08T08:29:54.755Z,32.15
2023-03-08T08:32:21.185Z,33.22
2023-03-08T08:34:47.648Z,31.33
2023-03-08T08:37:14.035Z,31.42
2023-03-08T08:39:40.437Z,32.55
2023-03-08T08:42:07.048Z,32.05
2023-03-08T08:44:33.470Z,32.40
2023-03-08T08:46:59.866Z,32.70
2023-03-08T08:49:26.258Z,31.85
2023-03-08T08:51:53.311Z,31.42
2023-03-08T08:54:19.815Z,30.75
2023-03-08T08:56:46.216Z,31.80
2023-03-08T08:59:13.283Z,32.05
2023-03-08T09:01:47.039Z,30.88
2023-03-08T09:04:14.223Z,32.80
2023-03-08T09:06:40.756Z,31.30
2023-03-08T09:09:07.235Z,29.65
2023-03-08T09:11:39.749Z,31.70
2023-03-08T09:14:11.546Z,31.55
2023-03-08T09:16:38.047Z,29.00
2023-03-08T09:19:05.334Z,29.42
2023-03-08T09:21:32.245Z,28.90
2023-03-08T09:24:00.926Z,30.23
2023-03-08T09:26:30.261Z,29.98
2023-03-08T09:28:58.663Z,29.48
2023-03-08T09:31:26.007Z,29.70
2023-03-08T09:33:52.486Z,29.77
2023-03-08T09:36:19.696Z,28.00
2023-03-08T09:38:50.348Z,30.63
2023-03-08T09:41:21.494Z,30.27
2023-03-08T09:43:59.999Z,28.05
2023-03-08T09:46:34.700Z,26.60
2023-03-08T09:49:03.198Z,24.80
2023-03-08T09:51:35.068Z,28.13
2023-03-08T09:54:05.245Z,30.15
2023-03-08T09:56:47.766Z,30.38
2023-03-08T09:59:35.086Z,29.50
2023-03-08T10:02:17.276Z,28.70
2023-03-08T10:05:11.841Z,23.85
2023-03-08T10:07:52.874Z,22.13
2023-03-08T10:10:25.187Z,18.65
2023-03-08T10:13:10.103Z,19.45
2023-03-08T10:15:41.340Z,18.58
2023-03-08T10:18:22.592Z,19.25
2023-03-08T10:20:49.054Z,19.60
2023-03-08T10:23:18.800Z,17.70
2023-03-08T10:25:48.052Z,19.35
2023-03-08T10:28:20.130Z,19.05
2023-03-08T10:30:48.359Z,17.65
2023-03-08T10:33:17.679Z,17.83
2023-03-08T10:35:55.027Z,17.40
2023-03-08T10:38:22.213Z,16.73
2023-03-08T10:40:48.747Z,14.32
2023-03-08T10:43:36.894Z,12.68
2023-03-08T10:46:06.102Z,15.57
2023-03-08T10:48:32.708Z,13.75
2023-03-08T10:51:00.956Z,12.57
2023-03-08T10:53:29.783Z,11.45
2023-03-08T10:55:58.614Z,10.60
2023-03-08T10:58:36.453Z,10.95
2023-03-08T11:01:22.714Z,9.70
2023-03-08T11:04:15.175Z,10.32
2023-03-08T11:06:41.712Z,12.20
2023-03-08T11:09:28.896Z,12.23
2023-03-08T11:11:56.886Z,11.82
2023-03-08T11:14:24.710Z,11.20
2023-03-08T11:17:22.218Z,9.15
2023-03-08T11:20:13.865Z,7.45
2023-03-08T11:22:58.339Z,6.03
2023-03-08T11:25:28.767Z,5.60
2023-03-08T11:28:08.136Z,6.25
2023-03-08T11:30:56.396Z,7.38
2023-03-08T11:33:44.728Z,6.80
2023-03-08T11:36:33.151Z,6.28
2023-03-08T11:39:19.745Z,6.28
2023-03-08T11:41:55.296Z,6.30
2023-03-08T11:44:37.415Z,3.90
2023-03-08T11:47:14.570Z,2.65
2023-03-08T11:50:16.579Z,2.30
2023-03-08T11:53:09.174Z,3.58
2023-03-08T11:55:55.130Z,4.30
2023-03-08T11:58:29.584Z,4.80
2023-03-08T12:01:00.722Z,5.18
2023-03-08T12:03:31.920Z,4.90
2023-03-08T12:06:22.881Z,3.92
2023-03-08T12:08:59.403Z,3.42
2023-03-08T12:11:32.227Z,4.00
2023-03-08T12:14:18.614Z,3.97
2023-03-08T12:17:25.514Z,4.57
2023-03-08T12:19:52.063Z,5.20
2023-03-08T12:22:50.268Z,4.38
2023-03-08T12:25:29.572Z,4.43
2023-03-08T12:27:55.949Z,5.35
2023-03-08T12:30:32.964Z,4.15
2023-03-08T12:33:02.695Z,4.20
2023-03-08T12:35:32.326Z,4.30
2023-03-08T12:38:17.736Z,4.45
2023-03-08T12:40:49.671Z,4.50
2023-03-08T12:43:22.096Z,4.30
2023-03-08T12:48:22.364Z,4.32
2023-03-08T12:51:04.095Z,4.28
2023-03-08T12:53:45.833Z,4.55
2023-03-08T12:56:12.119Z,4.10
2023-03-08T12:58:59.988Z,4.20
2023-03-08T13:01:38.540Z,4.72
2023-03-08T13:04:39.385Z,3.97
2023-03-08T13:07:18.889Z,3.70
2023-03-08T13:10:09.020Z,3.83
2023-03-08T13:13:26.742Z,4.05
2023-03-08T13:16:06.873Z,4.25
2023-03-08T13:18:33.341Z,4.18
2023-03-08T13:21:14.570Z,3.83
2023-03-08T13:23:48.074Z,4.68
2023-03-08T13:26:19.309Z,16.20
2023-03-08T13:28:48.340Z,5.47
2023-03-08T13:31:20.360Z,4.35
2023-03-08T13:33:48.280Z,5.18
2023-03-08T13:36:23.407Z,16.92
2023-03-08T13:39:06.483Z,16.70
2023-03-08T13:41:47.522Z,4.10
2023-03-08T13:44:19.444Z,4.13
2023-03-08T13:46:47.234Z,4.30
2023-03-08T13:49:17.775Z,3.85
2023-03-08T13:51:46.370Z,3.97
2023-03-08T13:54:15.905Z,3.78
2023-03-08T13:56:42.475Z,4.90
2023-03-08T13:59:37.874Z,3.65
2023-03-08T14:02:18.282Z,4.90
2023-03-08T14:04:44.792Z,3.53
2023-03-08T14:07:21.103Z,3.55
2023-03-08T14:09:47.502Z,3.15
2023-03-08T14:12:17.283Z,3.28
2023-03-08T14:14:44.826Z,3.50
2023-03-08T14:17:23.849Z,3.15
2023-03-08T14:20:17.799Z,3.00
2023-03-08T14:22:48.828Z,3.05
2023-03-08T14:25:25.708Z,3.40
2023-03-08T14:27:52.490Z,3.33
2023-03-08T14:30:22.184Z,3.97
2023-03-08T14:33:23.210Z,3.65
2023-03-08T14:35:57.617Z,3.70
2023-03-08T14:38:25.657Z,3.80
2023-03-08T14:40:52.372Z,4.10
2023-03-08T14:43:20.915Z,3.92
2023-03-08T14:46:00.121Z,4.15
2023-03-08T14:48:31.874Z,4.13
2023-03-08T14:50:59.448Z,4.75
2023-03-08T14:53:37.203Z,4.70
2023-03-08T14:56:09.620Z,4.63
2023-03-08T14:58:40.323Z,4.80
2023-03-08T15:01:06.727Z,4.70
2023-03-08T15:03:33.604Z,5.10
2023-03-08T15:06:07.353Z,4.97
2023-03-08T15:08:33.751Z,4.95
2023-03-08T15:11:00.312Z,4.90
2023-03-08T15:13:26.716Z,5.10
2023-03-08T15:15:53.306Z,5.03
2023-03-08T15:18:20.760Z,4.80
2023-03-08T15:20:49.396Z,5.20
2023-03-08T15:23:24.710Z,4.90
2023-03-08T15:25:51.424Z,4.80
2023-03-08T15:28:19.293Z,4.90
2023-03-08T15:30:45.872Z,4.28
2023-03-08T15:33:12.312Z,4.53
2023-03-08T15:35:39.433Z,4.07
2023-03-08T15:38:06.049Z,4.18
2023-03-08T15:40:33.917Z,3.97
2023-03-08T15:43:01.102Z,4.30
2023-03-08T15:45:28.843Z,3.97
2023-03-08T15:47:57.090Z,3.90
2023-03-08T15:50:23.560Z,3.90
2023-03-08T15:52:49.984Z,4.18
2023-03-08T15:55:16.440Z,3.95
2023-03-08T15:57:42.863Z,4.50
2023-03-08T16:00:12.685Z,5.32
2023-03-08T16:02:39.923Z,6.15
2023-03-08T16:05:08.512Z,5.35
2023-03-08T16:07:35.396Z,5.07
2023-03-08T16:10:02.128Z,4.47
2023-03-08T16:12:28.553Z,5.13
2023-03-08T16:14:57.096Z,5.22
2023-03-08T16:17:27.893Z,4.80
2023-03-08T16:19:54.301Z,5.07
2023-03-08T16:22:20.879Z,5.38
2023-03-08T16:24:47.416Z,5.68
2023-03-08T16:27:14.144Z,4.82
2023-03-08T16:29:40.571Z,6.00
2023-03-08T16:32:07.276Z,5.28
2023-03-08T16:34:33.744Z,5.82
2023-03-08T16:37:00.147Z,6.10
2023-03-08T16:39:26.690Z,6.60
2023-03-08T16:41:53.111Z,6.00
2023-03-08T16:44:27.514Z,6.93
2023-03-08T16:46:54.411Z,6.57
2023-03-08T16:49:22.638Z,6.53
2023-03-08T16:51:51.955Z,6.38
2023-03-08T16:54:18.349Z,6.50
2023-03-08T16:56:44.782Z,7.38
2023-03-08T16:59:13.679Z,9.15
2023-03-08T17:01:42.258Z,8.20
2023-03-08T17:04:09.993Z,8.23
2023-03-08T17:06:37.465Z,8.30
2023-03-08T17:09:04.758Z,8.65
2023-03-08T17:11:33.586Z,8.57
2023-03-08T17:14:11.495Z,8.77
2023-03-08T17:16:38.089Z,8.77
2023-03-08T17:19:06.931Z,9.18
2023-03-08T17:21:38.032Z,8.38
2023-03-08T17:24:07.364Z,9.38
2023-03-08T17:26:35.613Z,9.68
2023-03-08T17:29:02.720Z,9.93
2023-03-08T17:31:29.268Z,11.10
2023-03-08T17:33:55.703Z,11.68
2023-03-08T17:36:22.285Z,11.57
2023-03-08T17:38:48.798Z,12.10
2023-03-08T17:41:16.362Z,12.75
2023-03-08T17:43:43.043Z,13.70
2023-03-08T17:46:16.455Z,14.15
2023-03-08T17:48:43.205Z,14.30
2023-03-08T17:51:12.010Z,14.65
2023-03-08T17:53:38.798Z,15.30
2023-03-08T17:56:13.334Z,15.48
2023-03-08T17:58:40.264Z,14.57
2023-03-08T18:01:16.494Z,14.95
2023-03-08T18:03:43.196Z,15.75
2023-03-08T18:06:18.815Z,15.07
2023-03-08T18:08:45.196Z,16.08
2023-03-08T18:11:11.588Z,16.20
2023-03-08T18:13:40.368Z,16.17
2023-03-08T18:16:07.180Z,16.20
2023-03-08T18:18:33.651Z,17.27
2023-03-08T18:21:12.110Z,18.17
2023-03-08T18:23:41.690Z,18.20
2023-03-08T18:26:08.103Z,19.65
2023-03-08T18:28:36.327Z,22.63
2023-03-08T18:31:10.425Z,30.30
2023-03-08T18:33:36.949Z,28.40
2023-03-08T18:36:03.769Z,23.30
2023-03-08T18:38:30.175Z,25.90
2023-03-08T18:40:56.582Z,28.00
2023-03-08T18:43:23.073Z,23.55
2023-03-08T18:45:51.459Z,25.50
2023-03-08T18:48:18.117Z,24.30
2023-03-08T18:50:45.709Z,24.13
2023-03-08T18:53:12.821Z,22.17
2023-03-08T18:55:39.424Z,21.58
2023-03-08T18:58:05.794Z,22.02
2023-03-08T19:00:32.223Z,21.42
2023-03-08T19:02:58.677Z,21.48
2023-03-08T19:05:25.049Z,22.33
2023-03-08T19:07:54.568Z,22.23
2023-03-08T19:10:20.919Z,23.00
2023-03-08T19:12:47.298Z,22.23
2023-03-08T19:15:13.682Z,22.60
2023-03-08T19:17:40.120Z,22.67
2023-03-08T19:20:07.096Z,22.08
2023-03-08T19:22:33.524Z,22.42
2023-03-08T19:25:00.887Z,22.58
2023-03-08T19:27:28.901Z,23.60
2023-03-08T19:29:55.324Z,22.70
2023-03-08T19:32:21.784Z,24.10
2023-03-08T19:34:49.051Z,24.05
2023-03-08T19:37:15.499Z,22.05
2023-03-08T19:39:43.513Z,21.33
2023-03-08T19:42:15.090Z,21.05
2023-03-08T19:44:41.549Z,21.57
2023-03-08T19:47:09.149Z,20.58
2023-03-08T19:49:36.337Z,21.50
2023-03-08T19:52:04.989Z,21.35
2023-03-08T19:54:31.877Z,20.67
2023-03-08T19:56:58.722Z,21.75
2023-03-08T19:59:25.632Z,20.42
2023-03-08T20:01:53.661Z,20.83
2023-03-08T20:04:20.705Z,21.13
2023-03-08T20:06:48.244Z,22.98
2023-03-08T20:09:23.722Z,23.42
2023-03-08T20:11:53.120Z,23.80
2023-03-08T20:14:20.368Z,23.40
2023-03-08T20:16:46.945Z,22.70
2023-03-08T20:19:13.474Z,22.85
2023-03-08T20:21:40.004Z,24.50
2023-03-08T20:24:06.491Z,22.77
2023-03-08T20:26:35.346Z,24.10
2023-03-08T20:29:01.993Z,24.05
2023-03-08T20:31:29.808Z,24.45
2023-03-08T20:33:56.186Z,23.75
2023-03-08T20:36:23.527Z,23.80
2023-03-08T20:38:49.915Z,24.55
2023-03-08T20:41:19.583Z,24.73
2023-03-08T20:43:47.651Z,24.77
2023-03-08T20:46:15.898Z,25.17
2023-03-08T20:48:43.995Z,25.40
2023-03-08T20:51:13.269Z,24.67
2023-03-08T20:53:39.818Z,25.23
2023-03-08T20:56:07.739Z,24.90
2023-03-08T20:58:34.408Z,25.83
2023-03-08T21:01:01.213Z,24.75
2023-03-08T21:03:27.746Z,25.02
2023-03-08T21:05:54.100Z,25.33
2023-03-08T21:08:24.106Z,23.70
2023-03-08T21:10:50.614Z,24.88
2023-03-08T21:13:17.015Z,24.05
2023-03-08T21:15:43.413Z,23.85
2023-03-08T21:18:09.859Z,24.40
2023-03-08T21:20:37.483Z,24.10
2023-03-08T21:23:03.985Z,24.70
2023-03-08T21:25:33.469Z,25.30
2023-03-08T21:27:59.838Z,25.75
2023-03-08T21:30:28.168Z,24.65
2023-03-08T21:32:54.767Z,24.67
2023-03-08T21:35:22.830Z,25.80
2023-03-08T21:37:49.363Z,24.13
2023-03-08T21:40:15.865Z,24.88
2023-03-08T21:42:42.250Z,24.40
2023-03-08T21:45:09.173Z,24.75
2023-03-08T21:47:35.620Z,24.60
2023-03-08T21:50:02.015Z,24.33
2023-03-08T21:52:28.388Z,25.58
2023-03-08T21:54:54.763Z,24.80
2023-03-08T21:57:21.122Z,23.60
2023-03-08T21:59:47.675Z,23.75
2023-03-08T22:02:14.062Z,25.60
2023-03-08T22:04:40.454Z,24.20
2023-03-08T22:07:06.848Z,25.33
2023-03-08T22:09:33.255Z,24.48
2023-03-08T22:11:59.714Z,24.65
2023-03-08T22:14:26.641Z,25.30
2023-03-08T22:16:54.592Z,24.75
2023-03-08T22:19:20.991Z,24.73
2023-03-08T22:21:47.339Z,24.77
2023-03-08T22:24:13.737Z,24.92
2023-03-08T22:26:40.108Z,25.23
2023-03-08T22:29:06.491Z,24.38
2023-03-08T22:31:33.003Z,24.98
2023-03-08T22:34:00.317Z,25.42
2023-03-08T22:36:26.685Z,24.15
2023-03-08T22:38:53.148Z,24.52
2023-03-08T22:41:22.019Z,25.42
2023-03-08T22:43:48.587Z,25.45
2023-03-08T22:46:21.415Z,25.35
2023-03-08T22:48:48.570Z,25.23
2023-03-08T22:51:16.714Z,24.80
2023-03-08T22:53:43.300Z,24.38
2023-03-08T22:56:31.471Z,24.75
2023-03-08T22:58:58.242Z,25.00
2023-03-08T23:01:25.150Z,25.15
2023-03-08T23:03:56.992Z,24.50
2023-03-08T23:06:24.745Z,24.83
2023-03-08T23:08:51.111Z,25.40
2023-03-08T23:11:17.581Z,24.23
2023-03-08T23:13:43.975Z,24.65
2023-03-08T23:16:14.670Z,26.10
2023-03-08T23:18:41.759Z,25.63
2023-03-08T23:21:11.348Z,25.00
2023-03-08T23:23:37.786Z,26.15
2023-03-08T23:26:05.782Z,25.83
2023-03-08T23:28:35.741Z,27.20
2023-03-08T23:31:13.938Z,26.55
2023-03-08T23:33:41.258Z,26.08
2023-03-08T23:36:09.353Z,27.67
2023-03-08T23:38:35.927Z,26.38
2023-03-08T23:41:06.834Z,28.27
2023-03-08T23:43:34.020Z,26.42
2023-03-08T23:46:05.107Z,26.55
2023-03-08T23:48:31.498Z,26.63
2023-03-08T23:50:57.942Z,27.05
2023-03-08T23:53:24.734Z,27.83
2023-03-08T23:55:51.112Z,26.77
2023-03-08T23:58:17.472Z,26.40
